createdAt,value
2023-03-31T00:02:13.710Z,99809.59
2023-03-31T00:04:46.192Z,99815.91
2023-03-31T00:07:16.375Z,99817.13
2023-03-31T00:09:46.193Z,99813.19
2023-03-31T00:12:16.584Z,99807.28
2023-03-31T00:14:43.812Z,99804.09
2023-03-31T00:17:11.356Z,99807.56
2023-03-31T00:19:40.045Z,99806.72
2023-03-31T00:22:06.456Z,99801.06
2023-03-31T00:24:33.401Z,99796.16
2023-03-31T00:27:01.156Z,99803.34
2023-03-31T00:29:28.189Z,99796.94
2023-03-31T00:31:55.461Z,99790.44
2023-03-31T00:34:22.052Z,99791.38
2023-03-31T00:36:48.455Z,99785.31
2023-03-31T00:39:18.187Z,99782.47
2023-03-31T00:41:44.911Z,99783.09
2023-03-31T00:44:24.186Z,99777.34
2023-03-31T00:46:53.444Z,99771.72
2023-03-31T00:49:26.144Z,99761.59
2023-03-31T00:51:57.035Z,99763.81
2023-03-31T00:54:26.375Z,99758.53
2023-03-31T00:56:58.442Z,99770.31
2023-03-31T00:59:30.440Z,99767.84
2023-03-31T01:02:02.633Z,99759.28
2023-03-31T01:04:33.415Z,99751.59
2023-03-31T01:07:35.851Z,99744.19
2023-03-31T01:10:04.993Z,99747.81
2023-03-31T01:12:34.250Z,99739.84
2023-03-31T01:15:03.228Z,99740.00
2023-03-31T01:17:30.797Z,99730.50
2023-03-31T01:20:13.650Z,99732.06
2023-03-31T01:22:50.192Z,99727.47
2023-03-31T01:25:42.724Z,99726.41
2023-03-31T01:28:21.820Z,99714.69
2023-03-31T01:31:20.529Z,99712.97
2023-03-31T01:34:05.602Z,99713.66
2023-03-31T01:36:50.634Z,99711.84
2023-03-31T01:39:41.898Z,99710.66
2023-03-31T01:42:21.975Z,99715.34
2023-03-31T01:44:51.178Z,99706.94
2023-03-31T01:47:46.693Z,99705.50
2023-03-31T01:50:35.467Z,99707.00
2023-03-31T01:53:17.356Z,99703.94
2023-03-31T01:55:49.829Z,99706.25
2023-03-31T01:58:23.994Z,99698.97
2023-03-31T02:01:01.854Z,99707.44
2023-03-31T02:03:36.369Z,99705.03
2023-03-31T02:06:26.765Z,99699.22
2023-03-31T02:09:02.417Z,99691.03
2023-03-31T02:11:31.925Z,99689.97
2023-03-31T02:14:02.798Z,99691.03
2023-03-31T02:16:33.478Z,99691.00
2023-03-31T02:19:03.958Z,99697.91
2023-03-31T02:21:33.298Z,99689.72
2023-03-31T02:26:45.106Z,99682.03
2023-03-31T02:29:11.511Z,99683.97
2023-03-31T02:32:21.878Z,99676.56
2023-03-31T02:34:48.768Z,99678.88
2023-03-31T02:37:15.583Z,99679.09
2023-03-31T02:39:45.617Z,99678.38
2023-03-31T02:42:12.470Z,99675.09
2023-03-31T02:44:40.130Z,99668.88
2023-03-31T02:47:10.079Z,99670.88
2023-03-31T02:49:39.293Z,99670.94
2023-03-31T02:52:34.147Z,99670.59
2023-03-31T02:55:22.182Z,99659.81
2023-03-31T02:58:20.667Z,99653.22
2023-03-31T03:00:53.042Z,99655.72
2023-03-31T03:03:29.077Z,99652.22
2023-03-31T03:06:20.561Z,99650.72
2023-03-31T03:09:17.108Z,99646.88
2023-03-31T03:11:51.635Z,99639.88
2023-03-31T03:14:48.244Z,99642.31
2023-03-31T03:17:23.833Z,99636.41
2023-03-31T03:20:00.622Z,99640.72
2023-03-31T03:22:27.785Z,99640.31
2023-03-31T03:24:54.327Z,99633.94
2023-03-31T03:27:22.774Z,99633.41
2023-03-31T03:29:49.241Z,99630.22
2023-03-31T03:32:15.953Z,99627.44
2023-03-31T03:34:42.790Z,99620.44
2023-03-31T03:37:09.508Z,99622.47
2023-03-31T03:39:35.943Z,99622.97
2023-03-31T03:42:02.617Z,99619.91
2023-03-31T03:44:29.433Z,99615.22
2023-03-31T03:46:55.846Z,99623.41
2023-03-31T03:49:22.451Z,99622.31
2023-03-31T03:51:48.888Z,99614.91
2023-03-31T03:54:15.994Z,99610.16
2023-03-31T03:56:42.422Z,99609.44
2023-03-31T03:59:08.920Z,99606.63
2023-03-31T04:01:36.047Z,99605.06
2023-03-31T04:04:03.141Z,99603.88
2023-03-31T04:06:29.610Z,99598.69
2023-03-31T04:08:56.030Z,99594.44
2023-03-31T04:11:22.552Z,99581.56
2023-03-31T04:13:49.029Z,99581.16
2023-03-31T04:16:16.676Z,99580.69
2023-03-31T04:18:48.653Z,99579.59
2023-03-31T04:21:22.710Z,99578.03
2023-03-31T04:23:58.560Z,99574.50
2023-03-31T04:26:31.448Z,99579.16
2023-03-31T04:29:01.252Z,99580.34
2023-03-31T04:31:30.642Z,99569.75
2023-03-31T04:34:02.284Z,99570.16
2023-03-31T04:36:31.233Z,99563.94
2023-03-31T04:38:57.671Z,99559.19
2023-03-31T04:41:25.352Z,99554.19
2023-03-31T04:43:51.853Z,99548.25
2023-03-31T04:46:18.317Z,99549.41
2023-03-31T04:48:45.265Z,99539.13
2023-03-31T04:51:15.178Z,99530.09
2023-03-31T04:53:41.571Z,99539.44
2023-03-31T04:56:08.298Z,99537.13
2023-03-31T04:58:35.245Z,99532.78
2023-03-31T05:01:01.867Z,99535.13
2023-03-31T05:03:28.442Z,99530.34
2023-03-31T05:05:55.119Z,99522.59
2023-03-31T05:08:21.535Z,99530.78
2023-03-31T05:10:47.961Z,99521.78
2023-03-31T05:13:14.471Z,99521.38
2023-03-31T05:15:41.439Z,99525.63
2023-03-31T05:18:08.210Z,99515.13
2023-03-31T05:20:34.769Z,99518.63
2023-03-31T05:23:01.866Z,99511.66
2023-03-31T05:25:32.789Z,99502.22
2023-03-31T05:28:00.473Z,99486.25
2023-03-31T05:30:27.582Z,99482.41
2023-03-31T05:32:54.374Z,99479.66
2023-03-31T05:35:20.794Z,99484.75
2023-03-31T05:37:47.243Z,99487.84
2023-03-31T05:40:13.698Z,99490.66
2023-03-31T05:42:41.700Z,99489.47
2023-03-31T05:45:09.454Z,99480.56
2023-03-31T05:47:36.702Z,99487.66
2023-03-31T05:50:07.540Z,99483.72
2023-03-31T05:52:34.266Z,99475.94
2023-03-31T05:55:00.776Z,99479.13
2023-03-31T05:57:27.298Z,99478.81
2023-03-31T05:59:53.765Z,99480.03
2023-03-31T06:02:20.211Z,99473.72
2023-03-31T06:04:46.592Z,99475.38
2023-03-31T06:07:14.962Z,99475.47
2023-03-31T06:09:41.492Z,99472.69
2023-03-31T06:12:08.509Z,99468.84
2023-03-31T06:14:34.929Z,99470.34
2023-03-31T06:17:01.583Z,99459.03
2023-03-31T06:19:27.988Z,99453.13
2023-03-31T06:21:54.461Z,99450.41
2023-03-31T06:24:21.789Z,99449.31
2023-03-31T06:26:48.270Z,99452.19
2023-03-31T06:29:14.735Z,99453.78
2023-03-31T06:31:41.292Z,99449.19
2023-03-31T06:34:07.899Z,99445.31
2023-03-31T06:36:34.389Z,99442.44
2023-03-31T06:39:01.597Z,99446.38
2023-03-31T06:41:28.236Z,99441.03
2023-03-31T06:43:54.993Z,99440.66
2023-03-31T06:46:21.527Z,99444.25
2023-03-31T06:48:48.034Z,99443.84
2023-03-31T06:51:15.013Z,99442.31
2023-03-31T06:53:41.526Z,99442.19
2023-03-31T06:56:08.282Z,99438.78
2023-03-31T06:58:35.182Z,99430.34
2023-03-31T07:01:06.492Z,99427.91
2023-03-31T07:03:33.285Z,99433.50
2023-03-31T07:06:00.519Z,99428.00
2023-03-31T07:08:27.014Z,99426.16
2023-03-31T07:10:57.692Z,99422.72
2023-03-31T07:13:25.470Z,99424.38
2023-03-31T07:15:53.241Z,99432.25
2023-03-31T07:18:19.869Z,99433.50
2023-03-31T07:20:50.564Z,99435.88
2023-03-31T07:23:17.750Z,99434.72
2023-03-31T07:25:45.268Z,99433.59
2023-03-31T07:28:12.116Z,99426.97
2023-03-31T07:30:40.109Z,99425.09
2023-03-31T07:33:07.436Z,99422.69
2023-03-31T07:35:34.271Z,99427.47
2023-03-31T07:38:00.831Z,99425.91
2023-03-31T07:40:29.423Z,99420.84
2023-03-31T07:42:56.309Z,99429.47
2023-03-31T07:45:25.700Z,99421.66
2023-03-31T07:47:52.981Z,99414.22
2023-03-31T07:50:20.312Z,99419.31
2023-03-31T07:52:47.425Z,99416.97
2023-03-31T07:55:14.429Z,99416.56
2023-03-31T07:57:41.416Z,99431.50
2023-03-31T08:00:12.311Z,99424.00
2023-03-31T08:02:42.847Z,99425.19
2023-03-31T08:05:11.964Z,99422.06
2023-03-31T08:07:41.725Z,99425.19
2023-03-31T08:10:11.600Z,99429.97
2023-03-31T08:12:38.452Z,99433.09
2023-03-31T08:15:05.803Z,99431.53
2023-03-31T08:17:32.325Z,99420.59
2023-03-31T08:20:02.780Z,99413.50
2023-03-31T08:22:31.670Z,99411.97
2023-03-31T08:24:58.130Z,99409.22
2023-03-31T08:27:25.998Z,99404.91
2023-03-31T08:29:52.424Z,99408.44
2023-03-31T08:32:18.865Z,99401.78
2023-03-31T08:34:46.227Z,99393.16
2023-03-31T08:37:12.661Z,99395.13
2023-03-31T08:39:39.103Z,99386.91
2023-03-31T08:42:16.812Z,99389.63
2023-03-31T08:45:02.166Z,99384.53
2023-03-31T08:47:32.427Z,99383.00
2023-03-31T08:50:03.108Z,99375.13
2023-03-31T08:52:34.584Z,99370.03
2023-03-31T08:55:05.097Z,99371.19
2023-03-31T08:57:49.278Z,99374.31
2023-03-31T09:00:17.895Z,99369.59
2023-03-31T09:02:53.511Z,99358.59
2023-03-31T09:05:28.831Z,99360.13
2023-03-31T09:08:13.243Z,99370.31
2023-03-31T09:10:50.523Z,99363.63
2023-03-31T09:13:17.010Z,99363.22
2023-03-31T09:15:47.486Z,99357.25
2023-03-31T09:18:27.844Z,99357.66
2023-03-31T09:21:02.281Z,99352.91
2023-03-31T09:23:48.273Z,99356.84
2023-03-31T09:26:34.165Z,99343.13
2023-03-31T09:29:03.928Z,99348.94
2023-03-31T09:31:32.087Z,99332.44
2023-03-31T09:34:02.029Z,99341.06
2023-03-31T09:36:28.851Z,99335.16
2023-03-31T09:38:55.569Z,99327.72
2023-03-31T09:41:22.182Z,99337.50
2023-03-31T09:43:50.019Z,99323.75
2023-03-31T09:46:28.247Z,99318.19
2023-03-31T09:49:17.844Z,99329.13
2023-03-31T09:51:48.970Z,99318.06
2023-03-31T09:54:45.117Z,99314.19
2023-03-31T09:57:36.103Z,99311.84
2023-03-31T10:00:23.697Z,99311.81
2023-03-31T10:02:55.576Z,99307.13
2023-03-31T10:05:43.315Z,99312.63
2023-03-31T10:08:26.287Z,99300.03
2023-03-31T10:11:03.026Z,99303.16
2023-03-31T10:13:47.076Z,99305.59
2023-03-31T10:16:49.793Z,99297.34
2023-03-31T10:19:33.004Z,99298.59
2023-03-31T10:22:18.384Z,99288.72
2023-03-31T10:24:46.145Z,99291.94
2023-03-31T10:27:25.536Z,99290.66
2023-03-31T10:29:57.501Z,99282.88
2023-03-31T10:32:29.163Z,99276.59
2023-03-31T10:34:57.878Z,99271.09
2023-03-31T10:37:27.149Z,99259.31
2023-03-31T10:40:13.971Z,99251.88
2023-03-31T10:42:40.634Z,99256.94
2023-03-31T10:45:36.419Z,99244.38
2023-03-31T10:48:04.479Z,99249.13
2023-03-31T10:50:36.451Z,99240.84
2023-03-31T10:53:12.984Z,99236.22
2023-03-31T10:55:52.939Z,99235.81
2023-03-31T10:58:58.325Z,99236.16
2023-03-31T11:02:01.077Z,99232.66
2023-03-31T11:05:01.890Z,99232.50
2023-03-31T11:07:40.312Z,99222.22
2023-03-31T11:10:28.187Z,99224.97
2023-03-31T11:13:14.017Z,99219.50
2023-03-31T11:16:09.148Z,99212.13
2023-03-31T11:19:07.119Z,99207.84
2023-03-31T11:21:51.896Z,99213.75
2023-03-31T11:25:01.315Z,99201.56
2023-03-31T11:27:42.379Z,99189.84
2023-03-31T11:30:24.312Z,99187.09
2023-03-31T11:33:03.091Z,99183.94
2023-03-31T11:35:43.754Z,99177.25
2023-03-31T11:38:12.944Z,99176.50
2023-03-31T11:41:03.855Z,99170.94
2023-03-31T11:43:39.994Z,99162.69
2023-03-31T11:46:27.805Z,99159.97
2023-03-31T11:49:06.505Z,99144.22
2023-03-31T11:51:39.118Z,99140.31
2023-03-31T11:54:12.125Z,99137.56
2023-03-31T11:56:41.260Z,99128.88
2023-03-31T11:59:14.789Z,99123.00
2023-03-31T12:01:48.417Z,99120.66
2023-03-31T12:04:23.997Z,99120.50
2023-03-31T12:06:55.488Z,99123.22
2023-03-31T12:09:39.182Z,99114.91
2023-03-31T12:12:14.278Z,99112.16
2023-03-31T12:14:47.670Z,99108.56
2023-03-31T12:17:19.091Z,99107.78
2023-03-31T12:19:51.548Z,99101.88
2023-03-31T12:22:20.972Z,99093.13
2023-03-31T12:24:47.601Z,99100.16
2023-03-31T12:27:32.719Z,99096.25
2023-03-31T12:30:27.568Z,99087.97
2023-03-31T12:32:59.149Z,99094.63
2023-03-31T12:35:53.287Z,99094.63
2023-03-31T12:38:47.355Z,99084.81
2023-03-31T12:41:24.464Z,99083.19
2023-03-31T12:43:56.749Z,99085.69
2023-03-31T12:46:35.281Z,99083.06
2023-03-31T12:49:20.412Z,99090.69
2023-03-31T12:52:28.792Z,99080.53
2023-03-31T12:55:09.588Z,99084.03
2023-03-31T12:57:36.464Z,99077.38
2023-03-31T13:00:07.841Z,99073.84
2023-03-31T13:02:34.386Z,99068.06
2023-03-31T13:05:40.843Z,99063.72
2023-03-31T13:08:08.604Z,99052.84
2023-03-31T13:10:59.946Z,99054.44
2023-03-31T13:13:26.849Z,99052.41
2023-03-31T13:15:59.740Z,99040.19
2023-03-31T13:18:27.930Z,99044.50
2023-03-31T13:21:05.547Z,99034.69
2023-03-31T13:23:36.028Z,99038.63
2023-03-31T13:26:03.242Z,99028.00
2023-03-31T13:28:42.296Z,99025.63
2023-03-31T13:31:11.110Z,99017.34
2023-03-31T13:33:42.717Z,99011.91
2023-03-31T13:36:38.225Z,99015.41
2023-03-31T13:39:28.006Z,99002.41
2023-03-31T13:42:41.465Z,99005.50
2023-03-31T13:45:26.615Z,99000.06
2023-03-31T13:48:22.181Z,98991.41
2023-03-31T13:51:13.522Z,98992.13
2023-03-31T13:54:12.243Z,98981.19
2023-03-31T13:57:05.730Z,98978.03
2023-03-31T13:59:32.163Z,98979.53
2023-03-31T14:02:29.675Z,98973.28
2023-03-31T14:05:05.690Z,98970.13
2023-03-31T14:07:37.001Z,98967.44
2023-03-31T14:10:04.405Z,98962.41
2023-03-31T14:12:37.169Z,98961.28
2023-03-31T14:15:06.930Z,98958.53
2023-03-31T14:17:37.557Z,98965.56
2023-03-31T14:20:12.786Z,98964.00
2023-03-31T14:23:14.292Z,98959.75
2023-03-31T14:25:58.003Z,98951.59
2023-03-31T14:28:46.603Z,98955.09
2023-03-31T14:31:23.420Z,98954.69
2023-03-31T14:34:19.354Z,98963.31
2023-03-31T14:36:57.670Z,98954.38
2023-03-31T14:39:28.757Z,98952.06
2023-03-31T14:41:59.381Z,98962.22
2023-03-31T14:44:26.823Z,98951.25
2023-03-31T14:46:57.315Z,98954.78
2023-03-31T14:49:48.442Z,98948.94
2023-03-31T14:52:20.947Z,98947.38
2023-03-31T14:54:47.977Z,98945.38
2023-03-31T14:57:21.551Z,98949.75
2023-03-31T14:59:51.602Z,98941.09
2023-03-31T15:02:24.675Z,98950.50
2023-03-31T15:04:51.595Z,98944.28
2023-03-31T15:07:18.142Z,98935.31
2023-03-31T15:09:49.895Z,98934.94
2023-03-31T15:12:18.526Z,98936.09
2023-03-31T15:14:48.055Z,98932.22
2023-03-31T15:17:35.233Z,98935.31
2023-03-31T15:20:20.514Z,98930.25
2023-03-31T15:22:47.081Z,98936.50
2023-03-31T15:25:18.438Z,98941.59
2023-03-31T15:27:52.795Z,98932.59
2023-03-31T15:30:23.450Z,98936.13
2023-03-31T15:32:50.681Z,98932.19
2023-03-31T15:35:24.849Z,98938.88
2023-03-31T15:37:54.124Z,98933.38
2023-03-31T15:40:32.621Z,98930.25
2023-03-31T15:45:47.721Z,98936.88
2023-03-31T15:48:21.054Z,98931.41
2023-03-31T15:50:48.303Z,98930.22
2023-03-31T15:53:31.801Z,98928.66
2023-03-31T15:56:00.042Z,98924.75
2023-03-31T15:58:47.018Z,98927.09
2023-03-31T16:01:17.509Z,98927.09
2023-03-31T16:03:45.624Z,98928.28
2023-03-31T16:06:18.294Z,98922.78
2023-03-31T16:08:52.968Z,98927.47
2023-03-31T16:11:35.052Z,98930.22
2023-03-31T16:14:09.462Z,98927.88
2023-03-31T16:16:36.978Z,98923.22
2023-03-31T16:19:09.933Z,98924.34
2023-03-31T16:21:47.499Z,98928.63
2023-03-31T16:24:15.512Z,98934.88
2023-03-31T16:26:42.420Z,98930.22
2023-03-31T16:29:09.024Z,98937.66
2023-03-31T16:31:39.238Z,98934.91
2023-03-31T16:34:08.870Z,98937.25
2023-03-31T16:36:35.629Z,98937.66
2023-03-31T16:39:05.000Z,98947.41
2023-03-31T16:41:37.624Z,98944.31
2023-03-31T16:44:04.440Z,98943.91
2023-03-31T16:46:31.106Z,98939.63
2023-03-31T16:48:57.717Z,98938.44
2023-03-31T16:51:24.636Z,98941.56
2023-03-31T16:53:51.483Z,98938.06
2023-03-31T16:56:17.990Z,98934.16
2023-03-31T16:58:45.057Z,98939.22
2023-03-31T17:01:12.062Z,98943.53
2023-03-31T17:03:41.577Z,98945.13
2023-03-31T17:06:12.805Z,98946.66
2023-03-31T17:08:39.709Z,98947.44
2023-03-31T17:11:11.633Z,98942.00
2023-03-31T17:13:38.499Z,98942.00
2023-03-31T17:16:18.449Z,98954.13
2023-03-31T17:18:48.803Z,98943.94
2023-03-31T17:21:18.312Z,98945.13
2023-03-31T17:23:46.157Z,98945.13
2023-03-31T17:26:13.419Z,98953.31
2023-03-31T17:28:40.845Z,98954.47
2023-03-31T17:31:18.244Z,98955.69
2023-03-31T17:33:45.035Z,98951.75
2023-03-31T17:36:12.219Z,98958.41
2023-03-31T17:38:39.796Z,98956.06
2023-03-31T17:41:09.998Z,98955.66
2023-03-31T17:43:37.892Z,98945.13
2023-03-31T17:46:07.449Z,98963.50
2023-03-31T17:48:35.234Z,98958.78
2023-03-31T17:51:15.601Z,98962.31
2023-03-31T17:53:45.028Z,98957.63
2023-03-31T17:56:12.786Z,98961.53
2023-03-31T17:58:39.636Z,98965.44
2023-03-31T18:01:07.595Z,98966.22
2023-03-31T18:03:35.089Z,98963.09
2023-03-31T18:06:06.617Z,98968.56
2023-03-31T18:08:34.660Z,98967.78
2023-03-31T18:11:02.835Z,98968.56
2023-03-31T18:13:29.543Z,98965.84
2023-03-31T18:15:56.349Z,98971.69
2023-03-31T18:18:23.632Z,98964.66
2023-03-31T18:20:50.212Z,98968.97
2023-03-31T18:23:16.669Z,98978.75
2023-03-31T18:25:45.193Z,98966.22
2023-03-31T18:28:18.057Z,98966.25
2023-03-31T18:30:44.854Z,98964.69
2023-03-31T18:33:11.713Z,98970.91
2023-03-31T18:35:38.953Z,98977.19
2023-03-31T18:38:05.989Z,98974.44
2023-03-31T18:40:32.711Z,98980.28
2023-03-31T18:42:59.265Z,98976.78
2023-03-31T18:45:28.001Z,98979.13
2023-03-31T18:47:54.838Z,98983.03
2023-03-31T18:50:23.188Z,98981.88
2023-03-31T18:52:54.187Z,98976.38
2023-03-31T18:55:20.919Z,98985.78
2023-03-31T18:57:47.411Z,98977.94
2023-03-31T19:00:14.799Z,98979.50
2023-03-31T19:02:41.971Z,98973.63
2023-03-31T19:05:09.041Z,98973.22
2023-03-31T19:07:36.276Z,98979.47
2023-03-31T19:10:02.843Z,98978.34
2023-03-31T19:12:29.384Z,98979.09
2023-03-31T19:14:55.989Z,98981.84
2023-03-31T19:17:22.475Z,98983.44
2023-03-31T19:19:49.560Z,98983.00
2023-03-31T19:22:16.816Z,98978.72
2023-03-31T19:24:44.857Z,98973.25
2023-03-31T19:27:12.314Z,98981.44
2023-03-31T19:29:38.966Z,98984.97
2023-03-31T19:32:06.252Z,98978.31
2023-03-31T19:34:33.860Z,98987.72
2023-03-31T19:37:01.907Z,98983.41
2023-03-31T19:39:28.627Z,98989.28
2023-03-31T19:41:55.204Z,98984.19
2023-03-31T19:44:21.601Z,98981.44
2023-03-31T19:46:48.137Z,98982.59
2023-03-31T19:49:15.357Z,98990.81
2023-03-31T19:51:42.139Z,98981.44
2023-03-31T19:54:10.748Z,98982.63
2023-03-31T19:56:38.010Z,98983.00
2023-03-31T19:59:05.374Z,98980.63
2023-03-31T20:01:32.872Z,98971.66
2023-03-31T20:03:59.713Z,98977.91
2023-03-31T20:06:28.425Z,98979.06
2023-03-31T20:09:00.442Z,98974.31
2023-03-31T20:11:28.715Z,98975.50
2023-03-31T20:13:55.840Z,98967.66
2023-03-31T20:16:25.099Z,98968.84
2023-03-31T20:18:57.439Z,98967.66
2023-03-31T20:21:27.221Z,98974.31
2023-03-31T20:23:54.611Z,98970.03
2023-03-31T20:26:25.025Z,98977.44
2023-03-31T20:28:52.212Z,98969.63
2023-03-31T20:31:21.574Z,98974.72
2023-03-31T20:33:48.995Z,98978.22
2023-03-31T20:36:18.510Z,98976.25
2023-03-31T20:38:47.904Z,98970.78
2023-03-31T20:41:14.724Z,98977.81
2023-03-31T20:43:41.384Z,98975.47
2023-03-31T20:46:09.071Z,98971.16
2023-03-31T20:48:38.398Z,98966.03
2023-03-31T20:51:07.173Z,98969.13
2023-03-31T20:53:43.535Z,98965.63
2023-03-31T20:56:21.872Z,98975.34
2023-03-31T20:58:49.742Z,98974.28
2023-03-31T21:01:18.154Z,98966.81
2023-03-31T21:03:44.857Z,98972.31
2023-03-31T21:06:14.136Z,98977.34
2023-03-31T21:08:43.013Z,98978.88
2023-03-31T21:11:09.905Z,98978.47
2023-03-31T21:13:37.011Z,98980.88
2023-03-31T21:16:04.756Z,98984.38
2023-03-31T21:18:33.309Z,98985.13
2023-03-31T21:21:02.856Z,98984.00
2023-03-31T21:23:30.809Z,98982.38
2023-03-31T21:26:00.173Z,98980.06
2023-03-31T21:28:32.464Z,98982.41
2023-03-31T21:31:14.595Z,98985.13
2023-03-31T21:33:43.219Z,98976.91
2023-03-31T21:36:13.199Z,98982.41
2023-03-31T21:38:40.484Z,98985.53
2023-03-31T21:41:09.589Z,98983.56
2023-03-31T21:43:36.632Z,98983.97
2023-03-31T21:46:03.624Z,98983.97
2023-03-31T21:48:30.084Z,98990.22
2023-03-31T21:51:00.251Z,98991.03
2023-03-31T21:53:28.685Z,98988.69
2023-03-31T21:55:56.411Z,98992.97
2023-03-31T21:58:26.493Z,98982.44
2023-03-31T22:00:56.089Z,98992.63
2023-03-31T22:03:27.434Z,98987.94
2023-03-31T22:06:07.103Z,98992.19
2023-03-31T22:08:36.409Z,98992.97
2023-03-31T22:11:04.279Z,99000.03
2023-03-31T22:13:30.953Z,98998.06
2023-03-31T22:15:58.669Z,98999.63
2023-03-31T22:18:25.414Z,99001.97
2023-03-31T22:20:52.370Z,98998.06
2023-03-31T22:23:20.744Z,99001.63
2023-03-31T22:25:47.856Z,98998.91
2023-03-31T22:28:16.218Z,99004.75
2023-03-31T22:30:43.954Z,98997.31
2023-03-31T22:33:10.394Z,99009.00
2023-03-31T22:35:37.024Z,98998.03
2023-03-31T22:38:04.046Z,99000.41
2023-03-31T22:40:32.153Z,99006.28
2023-03-31T22:42:59.684Z,99002.00
2023-03-31T22:45:26.058Z,99011.75
2023-03-31T22:47:52.543Z,99014.84
2023-03-31T22:50:19.073Z,99009.41
2023-03-31T22:52:45.938Z,99009.00
2023-03-31T22:55:12.374Z,99008.59
2023-03-31T22:57:39.264Z,99014.47
2023-03-31T23:00:06.519Z,99017.59
2023-03-31T23:02:33.186Z,99014.84
2023-03-31T23:04:59.644Z,99016.03
2023-03-31T23:07:26.108Z,99024.19
2023-03-31T23:09:52.554Z,99018.31
2023-03-31T23:12:18.997Z,99020.69
2023-03-31T23:14:45.376Z,99026.88
2023-03-31T23:17:12.151Z,99021.03
2023-03-31T23:19:38.713Z,99023.75
2023-03-31T23:22:06.021Z,99019.84
2023-03-31T23:24:32.855Z,99027.66
2023-03-31T23:26:59.366Z,99030.84
2023-03-31T23:29:25.976Z,99024.97
2023-03-31T23:31:52.386Z,99022.25
2023-03-31T23:34:18.902Z,99023.00
2023-03-31T23:36:45.351Z,99028.50
2023-03-31T23:39:11.736Z,99023.34
2023-03-31T23:41:38.259Z,99022.22
2023-03-31T23:44:06.168Z,99030.84
2023-03-31T23:46:33.449Z,99021.53
2023-03-31T23:49:02.508Z,99025.84
2023-03-31T23:51:28.930Z,99027.38
2023-03-31T23:53:55.572Z,99028.56
2023-03-31T23:56:22.313Z,99025.44
2023-03-31T23:58:48.901Z,99026.56
